Randlett, Oklahoma
Current Conditions -  °F | °C
As of 8:52 AM on Monday 22 Dec 2014 (Local Time) from KSPS Reporting Station
Overcast Overcast  
Wind Chill: 35°   Ceiling: 200
Heat Index: 41°   Visibility: NA
Dew Point: 40°   Wind: 9mph
Humidity: 96%   Direction: 330°NNW
Pressure: 29.6"   Gusts: NA
Location:  34.18°N, 98.46°W
Report Text: KSPS 221452Z 33008KT OVC002 05/04 A2960 RMK AO2 SLP022 T00500044 53028 $
Loading
Personal Weather Stations






























Interactive Weather Map New forecast layout! Learn more

10-Day Weather Forecast

Advertisements
Track Severe Weather on mobile